Time;durP1;ratioP1;P1;durP2;ratioP2;P2;SDS_P1;SDS_P2;PMS_P1;PMS_P2;Temp;Humidity;BMP_temperature;BMP_pressure;BME280_temperature;BME280_humidity;BME280_pressure;Samples;Min_cycle;Max_cycle;Signal;HPM_P1;HPM_P2
2024/02/29 00:02:16;;;;;;;48.70;30.48;;;9.20;99.90;;;;;;5038085;28;20322;-74
2024/02/29 00:04:43;;;;;;;51.17;31.52;;;9.10;99.90;;;;;;5040244;28;20209;-74
2024/02/29 00:07:10;;;;;;;40.75;25.58;;;9.20;99.90;;;;;;5039979;28;20218;-79
2024/02/29 00:09:38;;;;;;;36.85;23.17;;;9.20;99.90;;;;;;5035233;28;20305;-77
2024/02/29 00:12:06;;;;;;;27.77;18.90;;;9.20;99.90;;;;;;5036526;28;20222;-74
2024/02/29 00:14:37;;;;;;;23.63;14.90;;;9.20;99.90;;;;;;5041031;28;20253;-75
2024/02/29 00:17:05;;;;;;;18.45;12.27;;;9.20;99.90;;;;;;5038520;28;20300;-76
2024/02/29 00:19:32;;;;;;;13.23;9.32;;;9.20;99.90;;;;;;5037365;28;20245;-75
2024/02/29 00:22:00;;;;;;;12.13;8.52;;;9.10;99.90;;;;;;5034980;28;20269;-74
2024/02/29 00:24:26;;;;;;;8.52;6.82;;;9.10;99.90;;;;;;5040164;28;20275;-74
2024/02/29 00:26:53;;;;;;;6.50;5.63;;;9.10;99.90;;;;;;5040121;28;20223;-76
2024/02/29 00:29:21;;;;;;;7.45;5.32;;;9.10;99.90;;;;;;5040047;28;20238;-75
2024/02/29 00:31:50;;;;;;;4.60;3.97;;;9.10;99.90;;;;;;5038619;28;20223;-74
2024/02/29 00:34:17;;;;;;;4.32;3.92;;;9.10;99.90;;;;;;5040467;28;20292;-75
2024/02/29 00:36:44;;;;;;;3.78;3.38;;;9.10;99.90;;;;;;5037983;28;20847;-75
2024/02/29 00:39:12;;;;;;;3.88;3.58;;;9.10;99.90;;;;;;5038959;28;20255;-73
2024/02/29 00:41:39;;;;;;;3.17;2.80;;;9.20;99.90;;;;;;5036678;28;20314;-77
2024/02/29 00:44:06;;;;;;;3.30;3.00;;;9.20;99.90;;;;;;5038159;28;20280;-77
2024/02/29 00:46:33;;;;;;;2.67;2.47;;;9.10;99.90;;;;;;5037831;28;20242;-75
2024/02/29 00:49:01;;;;;;;2.60;2.30;;;9.10;99.90;;;;;;5038796;28;20223;-75
2024/02/29 00:51:28;;;;;;;2.63;2.35;;;9.10;99.90;;;;;;5035043;28;20273;-80
2024/02/29 00:53:55;;;;;;;2.78;2.35;;;9.10;99.90;;;;;;5040712;28;20230;-75
2024/02/29 00:56:22;;;;;;;2.58;2.38;;;9.10;99.90;;;;;;5038499;28;21109;-76
2024/02/29 00:58:49;;;;;;;3.10;2.90;;;9.10;99.90;;;;;;5036795;28;20273;-74
2024/02/29 01:01:16;;;;;;;2.55;2.40;;;9.10;99.90;;;;;;5036018;28;20267;-76
2024/02/29 01:03:43;;;;;;;2.25;2.15;;;9.10;99.90;;;;;;5041719;28;20249;-75
2024/02/29 01:06:11;;;;;;;2.10;2.00;;;9.10;99.90;;;;;;5033284;28;20724;-78
2024/02/29 01:08:38;;;;;;;2.40;2.20;;;9.10;99.90;;;;;;5039446;28;20318;-74
2024/02/29 01:11:05;;;;;;;2.63;2.42;;;9.10;99.90;;;;;;5034801;28;20250;-76
2024/02/29 01:13:32;;;;;;;2.55;2.35;;;9.00;99.90;;;;;;5039050;28;20191;-77
2024/02/29 01:15:59;;;;;;;2.03;1.92;;;9.00;99.90;;;;;;5037704;28;20218;-76
2024/02/29 01:18:26;;;;;;;2.35;2.20;;;9.00;99.90;;;;;;5039190;28;20310;-75
2024/02/29 01:20:53;;;;;;;2.17;2.00;;;9.00;99.90;;;;;;5032782;28;20265;-75
2024/02/29 01:23:21;;;;;;;2.13;2.03;;;9.00;99.90;;;;;;5037582;28;20822;-76
2024/02/29 01:25:48;;;;;;;2.30;2.10;;;9.00;99.90;;;;;;5036528;28;20225;-74
2024/02/29 01:28:15;;;;;;;2.55;2.35;;;9.00;99.90;;;;;;5036474;28;20383;-74
2024/02/29 01:30:42;;;;;;;2.30;2.15;;;9.00;99.90;;;;;;5033872;28;20239;-76
2024/02/29 01:33:09;;;;;;;2.30;2.10;;;9.00;99.90;;;;;;5034205;28;20250;-75
2024/02/29 01:35:37;;;;;;;2.83;2.63;;;9.00;99.90;;;;;;5034685;28;20207;-74
2024/02/29 01:38:04;;;;;;;2.28;2.17;;;9.00;99.90;;;;;;5033811;28;20218;-77
2024/02/29 01:40:33;;;;;;;2.38;2.17;;;9.00;99.90;;;;;;5034730;28;20709;-75
2024/02/29 01:43:00;;;;;;;2.20;2.10;;;9.00;99.90;;;;;;5034401;28;20226;-77
2024/02/29 01:45:27;;;;;;;2.50;2.40;;;8.90;99.90;;;;;;5035427;28;20239;-77
2024/02/29 01:47:54;;;;;;;2.25;2.05;;;9.00;99.90;;;;;;5033437;28;20228;-74
2024/02/29 01:50:21;;;;;;;2.35;2.15;;;8.90;99.90;;;;;;5034290;28;20258;-76
2024/02/29 01:52:49;;;;;;;2.80;2.17;;;9.00;99.90;;;;;;5034401;28;20320;-75
2024/02/29 01:55:16;;;;;;;2.58;2.40;;;9.00;99.90;;;;;;5034649;28;20246;-79
2024/02/29 01:57:46;;;;;;;3.15;2.80;;;8.90;99.90;;;;;;5034752;28;20300;-82
2024/02/29 02:00:14;;;;;;;3.10;2.90;;;8.80;99.90;;;;;;5037077;28;20395;-78
2024/02/29 02:02:41;;;;;;;4.45;3.13;;;8.60;99.90;;;;;;5030200;28;20246;-81
2024/02/29 02:05:08;;;;;;;2.92;2.70;;;8.50;99.90;;;;;;5035911;28;20784;-78
2024/02/29 02:07:36;;;;;;;2.80;2.60;;;8.50;99.90;;;;;;5036861;28;20317;-82
2024/02/29 02:10:06;;;;;;;3.03;2.72;;;8.50;99.90;;;;;;5032847;28;20222;-78
2024/02/29 02:12:33;;;;;;;2.75;2.55;;;8.60;99.90;;;;;;5034134;28;20218;-77
2024/02/29 02:15:02;;;;;;;2.40;2.22;;;8.60;99.90;;;;;;5030190;28;20255;-78
2024/02/29 02:17:30;;;;;;;3.03;2.70;;;8.70;99.90;;;;;;5034240;28;20330;-79
2024/02/29 02:19:58;;;;;;;2.70;2.50;;;8.70;99.90;;;;;;5034742;28;20335;-80
2024/02/29 02:22:28;;;;;;;3.28;2.97;;;8.80;99.90;;;;;;5032777;28;20230;-77
2024/02/29 02:24:55;;;;;;;2.80;2.60;;;8.80;99.90;;;;;;5031704;28;20242;-79
2024/02/29 02:27:22;;;;;;;2.75;2.55;;;8.70;99.90;;;;;;5031906;28;20593;-80
2024/02/29 02:29:49;;;;;;;2.60;2.38;;;8.60;99.90;;;;;;5033523;28;20608;-76
2024/02/29 02:32:16;;;;;;;3.00;2.80;;;8.60;99.90;;;;;;5033560;28;20311;-77
2024/02/29 02:34:42;;;;;;;2.53;2.38;;;8.60;99.90;;;;;;5037294;28;20199;-78
2024/02/29 02:37:09;;;;;;;2.95;2.75;;;8.60;99.90;;;;;;5036067;28;20304;-78
2024/02/29 02:39:38;;;;;;;2.80;2.60;;;8.60;99.90;;;;;;5031656;28;20223;-79
2024/02/29 02:42:06;;;;;;;2.97;2.78;;;8.60;99.90;;;;;;5032500;28;20683;-79
2024/02/29 02:44:33;;;;;;;2.70;2.60;;;8.60;99.90;;;;;;5036547;28;20700;-78
2024/02/29 02:47:00;;;;;;;2.20;2.10;;;8.70;99.90;;;;;;5038229;28;20308;-78
2024/02/29 02:49:27;;;;;;;2.40;2.30;;;8.70;99.90;;;;;;5037962;28;20280;-77
2024/02/29 02:51:54;;;;;;;2.33;2.22;;;8.70;99.90;;;;;;5036628;28;20249;-77
2024/02/29 02:54:21;;;;;;;2.33;2.22;;;8.70;99.90;;;;;;5036767;28;20250;-77
2024/02/29 02:56:49;;;;;;;2.47;2.17;;;8.70;99.90;;;;;;5038500;28;20227;-80
2024/02/29 02:59:16;;;;;;;2.50;2.40;;;8.70;99.90;;;;;;5036079;28;20247;-80
2024/02/29 03:01:43;;;;;;;2.40;2.30;;;8.70;99.90;;;;;;5032491;28;20226;-81
2024/02/29 03:04:10;;;;;;;2.40;2.20;;;8.70;99.90;;;;;;5038178;28;20242;-78
2024/02/29 03:06:37;;;;;;;2.20;2.10;;;8.70;99.90;;;;;;5038755;28;20259;-78
2024/02/29 03:09:05;;;;;;;2.15;2.05;;;8.70;99.90;;;;;;5038672;28;20320;-77
2024/02/29 03:11:32;;;;;;;2.53;2.33;;;8.70;99.90;;;;;;5036710;28;20249;-79
2024/02/29 03:14:00;;;;;;;2.25;2.13;;;8.70;99.90;;;;;;5037665;28;20199;-78
2024/02/29 03:16:27;;;;;;;2.33;2.22;;;8.70;99.90;;;;;;5039689;28;20246;-76
2024/02/29 03:18:55;;;;;;;1.92;1.70;;;8.70;99.90;;;;;;5038184;28;20231;-79
2024/02/29 03:21:22;;;;;;;2.15;2.05;;;8.70;99.90;;;;;;5037313;28;20237;-78
2024/02/29 03:23:49;;;;;;;3.85;2.00;;;8.70;99.90;;;;;;5040333;28;20227;-76
2024/02/29 03:26:16;;;;;;;2.70;1.90;;;8.70;99.90;;;;;;5040012;28;20246;-80
2024/02/29 03:28:43;;;;;;;2.10;2.00;;;8.80;99.90;;;;;;5043145;28;20250;-79
2024/02/29 03:31:12;;;;;;;2.28;2.13;;;8.80;99.90;;;;;;5034620;28;20301;-75
2024/02/29 03:33:39;;;;;;;2.78;2.58;;;8.70;99.90;;;;;;5041296;28;20818;-79
2024/02/29 03:36:07;;;;;;;2.60;2.33;;;8.70;99.90;;;;;;5031490;28;20654;-76
2024/02/29 03:38:35;;;;;;;2.38;2.20;;;8.70;99.90;;;;;;5038873;28;20222;-76
2024/02/29 03:41:03;;;;;;;2.25;2.13;;;8.70;99.90;;;;;;5038505;28;20269;-75
2024/02/29 03:43:30;;;;;;;2.40;2.30;;;8.70;99.90;;;;;;5040353;28;20199;-78
2024/02/29 03:45:57;;;;;;;2.20;2.10;;;8.70;99.90;;;;;;5038551;28;20754;-76
2024/02/29 03:48:25;;;;;;;2.10;2.00;;;8.70;99.90;;;;;;5038046;28;20226;-77
2024/02/29 03:50:52;;;;;;;2.47;2.30;;;8.80;99.90;;;;;;5036551;28;20640;-78
2024/02/29 03:53:20;;;;;;;2.33;2.13;;;8.80;99.90;;;;;;5037510;28;22421;-77
2024/02/29 03:55:48;;;;;;;2.50;2.40;;;8.80;99.90;;;;;;5036039;28;20235;-76
2024/02/29 03:58:17;;;;;;;2.30;2.20;;;8.80;99.90;;;;;;5039966;28;20234;-81
2024/02/29 04:00:44;;;;;;;2.42;2.25;;;8.80;99.90;;;;;;5036149;28;20750;-77
2024/02/29 04:03:11;;;;;;;2.40;2.10;;;8.80;99.90;;;;;;5036570;28;20254;-79
2024/02/29 04:05:39;;;;;;;2.60;2.40;;;8.80;99.90;;;;;;5037835;28;20250;-77
2024/02/29 04:08:11;;;;;;;2.10;2.00;;;8.80;99.90;;;;;;5038219;28;20223;-74
2024/02/29 04:10:38;;;;;;;2.03;1.92;;;8.80;99.90;;;;;;5037140;28;20211;-76
2024/02/29 04:13:05;;;;;;;2.33;2.22;;;8.80;99.90;;;;;;5037759;28;20238;-78
2024/02/29 04:15:32;;;;;;;1.98;1.88;;;8.80;99.90;;;;;;5038453;28;20225;-77
2024/02/29 04:17:59;;;;;;;2.22;2.08;;;8.70;99.90;;;;;;5036910;28;20782;-83
2024/02/29 04:20:26;;;;;;;3.10;2.08;;;8.70;99.90;;;;;;5035689;28;20250;-82
2024/02/29 04:22:55;;;;;;;1.80;1.70;;;8.60;99.90;;;;;;5038958;28;20741;-83
2024/02/29 04:25:22;;;;;;;2.10;2.00;;;8.60;99.90;;;;;;5039338;28;20292;-80
2024/02/29 04:27:49;;;;;;;2.63;2.42;;;8.60;99.90;;;;;;5039114;28;21118;-79
2024/02/29 04:30:17;;;;;;;2.30;2.20;;;8.60;99.90;;;;;;5038247;28;20230;-77
2024/02/29 04:32:45;;;;;;;2.30;2.20;;;8.70;99.90;;;;;;5043632;28;20215;-82
2024/02/29 04:35:12;;;;;;;2.67;2.47;;;8.70;99.90;;;;;;5041334;28;20296;-79
2024/02/29 04:37:39;;;;;;;2.40;2.28;;;8.70;99.90;;;;;;5037480;28;20592;-79
2024/02/29 04:40:10;;;;;;;2.30;2.10;;;8.70;99.90;;;;;;5039478;28;20315;-80
2024/02/29 04:42:37;;;;;;;2.10;1.90;;;8.70;99.90;;;;;;5035429;28;20210;-80
2024/02/29 04:45:04;;;;;;;2.25;2.15;;;8.70;99.90;;;;;;5036302;28;20280;-78
2024/02/29 04:47:31;;;;;;;2.20;2.10;;;8.70;99.90;;;;;;5038657;28;20836;-82
2024/02/29 04:49:58;;;;;;;2.13;2.03;;;8.70;99.90;;;;;;5037543;28;20239;-80
2024/02/29 04:52:25;;;;;;;2.20;2.10;;;8.70;99.90;;;;;;5035738;28;20254;-77
2024/02/29 04:54:52;;;;;;;2.50;2.40;;;8.70;99.90;;;;;;5035353;28;20307;-79
2024/02/29 04:57:20;;;;;;;2.25;2.15;;;8.70;99.90;;;;;;5037757;28;20246;-77
2024/02/29 04:59:47;;;;;;;1.95;1.85;;;8.70;99.90;;;;;;5033270;28;20633;-77
2024/02/29 05:02:15;;;;;;;2.85;2.28;;;8.70;99.90;;;;;;5035753;28;20219;-76
2024/02/29 05:04:42;;;;;;;2.78;2.63;;;8.70;99.90;;;;;;5036909;28;20211;-80
2024/02/29 05:07:10;;;;;;;3.00;2.70;;;8.60;99.90;;;;;;5033071;28;20296;-78
2024/02/29 05:09:38;;;;;;;2.30;2.05;;;8.50;99.90;;;;;;5036027;28;20226;-80
2024/02/29 05:12:05;;;;;;;3.33;2.67;;;8.50;99.90;;;;;;5036457;28;20219;-79
2024/02/29 05:14:33;;;;;;;2.60;2.40;;;8.40;99.90;;;;;;5036441;28;20234;-78
2024/02/29 05:17:00;;;;;;;3.70;2.85;;;8.40;99.90;;;;;;5034875;28;20219;-80
2024/02/29 05:19:27;;;;;;;2.80;2.33;;;8.40;99.90;;;;;;5036361;28;20246;-79
2024/02/29 05:21:55;;;;;;;2.63;2.42;;;8.40;99.90;;;;;;5035944;28;20888;-79
2024/02/29 05:24:22;;;;;;;2.60;2.40;;;8.40;99.90;;;;;;5036664;28;20248;-80
2024/02/29 05:26:49;;;;;;;2.47;2.28;;;8.40;99.90;;;;;;5038747;28;20276;-78
2024/02/29 05:29:16;;;;;;;2.45;2.15;;;8.40;99.90;;;;;;5034008;28;20254;-79
2024/02/29 05:31:51;;;;;;;2.30;2.20;;;8.50;99.90;;;;;;5033973;28;20230;-80
2024/02/29 05:34:20;;;;;;;2.22;2.13;;;8.50;99.90;;;;;;5038852;28;20289;-78
2024/02/29 05:36:47;;;;;;;2.35;2.25;;;8.50;99.90;;;;;;5039326;28;20214;-82
2024/02/29 05:39:14;;;;;;;2.15;2.03;;;8.50;99.90;;;;;;5036355;28;20697;-83
2024/02/29 05:41:41;;;;;;;2.08;1.98;;;8.50;99.90;;;;;;5034974;28;20230;-78
2024/02/29 05:44:08;;;;;;;2.30;2.20;;;8.50;99.90;;;;;;5038564;28;20615;-80
2024/02/29 05:46:35;;;;;;;4.70;2.80;;;8.50;99.90;;;;;;5037559;28;20225;-82
2024/02/29 05:49:03;;;;;;;2.55;2.35;;;8.50;99.90;;;;;;5035588;28;20243;-76
2024/02/29 05:51:30;;;;;;;2.60;2.40;;;8.50;99.90;;;;;;5033038;28;20330;-79
2024/02/29 05:53:57;;;;;;;2.65;2.50;;;8.40;99.90;;;;;;5038922;28;21327;-80
2024/02/29 05:56:24;;;;;;;2.65;2.50;;;8.40;99.90;;;;;;5035678;28;20307;-80
2024/02/29 05:58:51;;;;;;;2.85;2.65;;;8.40;99.90;;;;;;5036688;28;20281;-80
2024/02/29 06:01:19;;;;;;;2.95;2.75;;;8.40;99.90;;;;;;5035485;28;20432;-79
2024/02/29 06:03:46;;;;;;;2.97;2.78;;;8.40;99.90;;;;;;5036257;28;20191;-81
2024/02/29 06:06:16;;;;;;;4.65;3.25;;;8.30;99.90;;;;;;5035991;28;20263;-79
2024/02/29 06:08:43;;;;;;;2.97;2.78;;;8.20;99.90;;;;;;5037629;28;20238;-82
2024/02/29 06:11:13;;;;;;;3.40;3.10;;;8.10;99.90;;;;;;5034849;28;20234;-80
2024/02/29 06:13:40;;;;;;;3.88;3.58;;;8.00;99.90;;;;;;5039580;28;20199;-80
2024/02/29 06:16:07;;;;;;;4.15;3.75;;;8.10;99.90;;;;;;5040947;28;20254;-81
2024/02/29 06:18:36;;;;;;;4.35;4.05;;;8.10;99.90;;;;;;5036898;28;20214;-79
2024/02/29 06:21:04;;;;;;;4.03;3.53;;;8.10;99.90;;;;;;5034546;28;20227;-79
2024/02/29 06:23:32;;;;;;;3.55;3.25;;;8.20;99.90;;;;;;5032488;28;20227;-80
2024/02/29 06:26:00;;;;;;;3.42;3.13;;;8.20;99.90;;;;;;5034428;28;20227;-77
2024/02/29 06:28:28;;;;;;;4.13;2.75;;;8.20;99.90;;;;;;5039324;28;20225;-79
2024/02/29 06:30:55;;;;;;;3.28;2.83;;;8.20;99.90;;;;;;5035544;28;20223;-78
2024/02/29 06:33:22;;;;;;;3.15;2.90;;;8.30;99.90;;;;;;5036294;28;20268;-80
2024/02/29 06:35:49;;;;;;;2.72;2.53;;;8.40;99.90;;;;;;5037658;28;20214;-78
2024/02/29 06:38:16;;;;;;;3.08;2.78;;;8.40;99.90;;;;;;5033259;28;20289;-81
2024/02/29 06:40:45;;;;;;;3.55;2.90;;;8.40;99.90;;;;;;5034393;28;20210;-79
2024/02/29 06:43:12;;;;;;;3.28;2.97;;;8.40;99.90;;;;;;5035120;28;20304;-82
2024/02/29 06:45:46;;;;;;;2.92;2.72;;;8.40;99.90;;;;;;5036165;28;20266;-79
2024/02/29 06:48:14;;;;;;;2.97;2.50;;;8.30;99.90;;;;;;5037112;28;20671;-83
2024/02/29 06:50:40;;;;;;;2.55;2.38;;;8.40;99.90;;;;;;5035677;28;20385;-79
2024/02/29 06:53:07;;;;;;;2.85;2.70;;;8.40;99.90;;;;;;5037891;28;20257;-80
2024/02/29 06:55:34;;;;;;;3.17;2.90;;;8.40;99.90;;;;;;5033483;28;20211;-80
2024/02/29 06:58:05;;;;;;;3.00;2.80;;;8.50;99.90;;;;;;5034527;28;20651;-80
2024/02/29 07:00:32;;;;;;;3.42;3.13;;;8.50;99.90;;;;;;5036173;28;20219;-79
2024/02/29 07:03:00;;;;;;;3.47;2.90;;;8.50;99.90;;;;;;5032983;28;20641;-77
2024/02/29 07:05:27;;;;;;;2.90;2.65;;;8.50;99.90;;;;;;5032921;28;20317;-78
2024/02/29 07:07:55;;;;;;;3.47;3.17;;;8.50;99.90;;;;;;5032880;28;20233;-80
2024/02/29 07:10:22;;;;;;;3.17;2.88;;;8.50;99.90;;;;;;5028798;28;20218;-79
2024/02/29 07:12:50;;;;;;;3.00;2.80;;;8.50;99.90;;;;;;5031061;28;20973;-81
2024/02/29 07:15:18;;;;;;;3.88;3.05;;;8.50;99.90;;;;;;5034193;28;20238;-79
2024/02/29 07:17:45;;;;;;;3.30;3.10;;;8.60;99.90;;;;;;5032865;28;20239;-78
2024/02/29 07:20:14;;;;;;;3.08;2.83;;;8.70;99.90;;;;;;5033202;28;20700;-80
2024/02/29 07:22:41;;;;;;;2.90;2.70;;;8.80;99.90;;;;;;5030305;28;20226;-83
2024/02/29 07:25:09;;;;;;;4.25;2.75;;;8.90;99.90;;;;;;5035057;28;20243;-80
2024/02/29 07:27:38;;;;;;;3.20;2.63;;;9.00;99.90;;;;;;5033021;28;20222;-80
2024/02/29 07:30:08;;;;;;;2.97;2.78;;;9.00;99.90;;;;;;5034238;28;20326;-79
2024/02/29 07:32:36;;;;;;;3.00;2.80;;;9.00;99.90;;;;;;5032541;28;20337;-80
2024/02/29 07:35:03;;;;;;;2.70;2.50;;;9.10;99.90;;;;;;5033266;28;20281;-75
2024/02/29 07:37:32;;;;;;;3.47;3.20;;;9.10;99.90;;;;;;5032867;28;20315;-79
2024/02/29 07:39:59;;;;;;;3.22;2.90;;;9.20;99.90;;;;;;5032899;28;20702;-76
2024/02/29 07:42:26;;;;;;;4.72;2.88;;;9.20;99.90;;;;;;5035339;28;20218;-81
2024/02/29 07:44:53;;;;;;;3.45;3.17;;;9.30;99.90;;;;;;5029285;28;20223;-75
2024/02/29 07:47:20;;;;;;;3.30;3.00;;;9.30;99.90;;;;;;5035427;28;20304;-77
2024/02/29 07:49:48;;;;;;;3.60;3.33;;;9.40;99.90;;;;;;5035416;28;20967;-77
2024/02/29 07:52:15;;;;;;;3.17;2.92;;;9.50;99.90;;;;;;5037546;28;20232;-75
2024/02/29 07:54:43;;;;;;;3.05;2.75;;;9.50;99.90;;;;;;5033208;28;20320;-76
2024/02/29 07:57:10;;;;;;;4.57;3.08;;;9.50;99.90;;;;;;5032990;28;20272;-74
2024/02/29 07:59:37;;;;;;;3.75;3.22;;;9.60;99.90;;;;;;5037071;28;20216;-83
2024/02/29 08:02:05;;;;;;;4.20;3.72;;;9.60;99.90;;;;;;5035616;28;20361;-77
2024/02/29 08:04:32;;;;;;;3.95;3.53;;;9.60;99.90;;;;;;5034807;28;20209;-77
2024/02/29 08:07:00;;;;;;;5.18;4.00;;;9.70;99.90;;;;;;5032952;28;20219;-78
2024/02/29 08:09:27;;;;;;;4.85;3.70;;;9.80;99.90;;;;;;5034100;28;20332;-75
2024/02/29 08:11:54;;;;;;;3.22;3.00;;;9.90;99.90;;;;;;5035239;28;21059;-75
2024/02/29 08:14:21;;;;;;;3.58;3.30;;;10.00;99.90;;;;;;5036404;28;20230;-76
2024/02/29 08:16:48;;;;;;;3.97;3.67;;;10.10;99.90;;;;;;5036272;28;20755;-78
2024/02/29 08:19:16;;;;;;;4.18;3.75;;;10.30;99.90;;;;;;5038417;28;20219;-76
2024/02/29 08:21:43;;;;;;;6.00;3.17;;;10.40;99.90;;;;;;5036529;28;20328;-75
2024/02/29 08:24:11;;;;;;;3.35;3.05;;;10.70;99.90;;;;;;5038135;28;20280;-75
2024/02/29 08:26:38;;;;;;;3.35;3.08;;;11.40;99.90;;;;;;5034954;28;20265;-75
2024/02/29 08:29:05;;;;;;;3.35;2.90;;;12.00;99.90;;;;;;5036185;28;20221;-78
2024/02/29 08:31:32;;;;;;;4.13;3.03;;;12.70;99.90;;;;;;5031213;28;20242;-81
2024/02/29 08:33:59;;;;;;;3.80;3.20;;;13.40;99.90;;;;;;5034741;28;20238;-78
2024/02/29 08:36:28;;;;;;;4.40;3.28;;;14.00;99.90;;;;;;5029757;28;20223;-79
2024/02/29 08:38:55;;;;;;;9.52;3.30;;;14.30;99.90;;;;;;5033517;28;20902;-75
2024/02/29 08:41:24;;;;;;;3.55;3.25;;;14.30;99.90;;;;;;5031719;28;20273;-78
2024/02/29 08:43:50;;;;;;;4.97;3.25;;;14.00;99.90;;;;;;5032855;28;20226;-74
2024/02/29 08:46:17;;;;;;;5.32;3.00;;;13.70;99.90;;;;;;5032732;28;20253;-82
2024/02/29 08:48:45;;;;;;;5.00;2.92;;;13.40;99.90;;;;;;5030343;28;20987;-77
2024/02/29 08:51:12;;;;;;;4.05;2.95;;;13.20;99.90;;;;;;5033156;28;20763;-79
2024/02/29 08:53:39;;;;;;;3.10;2.83;;;13.00;99.90;;;;;;5033623;28;20763;-78
2024/02/29 08:56:06;;;;;;;4.90;3.30;;;12.80;99.90;;;;;;5029090;28;20246;-75
2024/02/29 08:58:35;;;;;;;3.35;3.05;;;12.60;99.90;;;;;;5036499;28;20242;-77
2024/02/29 09:01:02;;;;;;;2.85;2.60;;;12.50;99.90;;;;;;5035208;28;20284;-81
2024/02/29 09:03:29;;;;;;;2.88;2.67;;;12.60;99.90;;;;;;5034115;28;20203;-79
2024/02/29 09:05:55;;;;;;;3.30;3.00;;;12.80;99.90;;;;;;5034092;28;20243;-78
2024/02/29 09:08:22;;;;;;;3.60;2.92;;;13.10;99.90;;;;;;5034551;28;20289;-77
2024/02/29 09:10:49;;;;;;;4.38;2.70;;;13.30;99.90;;;;;;5032468;28;21742;-75
2024/02/29 09:13:16;;;;;;;4.60;2.50;;;13.60;99.90;;;;;;5033468;28;20273;-78
2024/02/29 09:15:45;;;;;;;4.82;2.63;;;13.80;99.90;;;;;;5033738;28;20250;-75
2024/02/29 09:18:12;;;;;;;2.67;2.47;;;14.30;99.90;;;;;;5033091;28;20265;-77
2024/02/29 09:20:39;;;;;;;3.38;2.38;;;14.70;99.90;;;;;;5032137;28;20261;-77
2024/02/29 09:23:06;;;;;;;3.15;2.67;;;14.80;99.90;;;;;;5031391;28;20316;-73
2024/02/29 09:25:33;;;;;;;2.67;2.47;;;15.00;99.90;;;;;;5032160;28;20234;-78
2024/02/29 09:28:00;;;;;;;3.17;2.63;;;15.00;99.90;;;;;;5028931;28;20265;-77
2024/02/29 09:30:27;;;;;;;3.47;2.67;;;15.00;99.90;;;;;;5033923;28;20309;-79
2024/02/29 09:32:56;;;;;;;4.32;2.60;;;15.00;99.90;;;;;;5030373;28;20257;-77
2024/02/29 09:35:23;;;;;;;2.95;2.00;;;14.90;99.90;;;;;;5029125;28;20242;-80
2024/02/29 09:37:50;;;;;;;2.28;2.13;;;14.90;99.90;;;;;;5028629;28;20246;-79
2024/02/29 09:40:20;;;;;;;3.50;2.20;;;14.70;99.90;;;;;;5032937;28;20309;-80
2024/02/29 09:42:47;;;;;;;6.25;3.38;;;14.60;99.90;;;;;;5028873;28;20211;-78
2024/02/29 09:45:15;;;;;;;2.80;2.53;;;15.00;99.90;;;;;;5026266;28;20234;-77
2024/02/29 09:47:44;;;;;;;3.20;2.33;;;15.40;99.90;;;;;;5032303;28;20261;-80
2024/02/29 09:50:12;;;;;;;5.20;2.60;;;15.90;99.90;;;;;;5033280;28;20262;-75
2024/02/29 09:52:39;;;;;;;3.42;2.50;;;16.20;99.90;;;;;;5027021;28;20242;-75
2024/02/29 09:55:13;;;;;;;3.25;2.58;;;15.80;99.90;;;;;;5031969;28;20223;-77
2024/02/29 09:57:41;;;;;;;4.03;2.78;;;15.50;99.90;;;;;;5033048;28;20219;-79
2024/02/29 10:00:11;;;;;;;5.18;2.67;;;15.50;99.90;;;;;;5032054;28;20284;-82
2024/02/29 10:02:39;;;;;;;2.33;2.13;;;15.40;99.90;;;;;;5030374;28;20245;-79
2024/02/29 10:05:10;;;;;;;4.00;2.10;;;15.00;99.90;;;;;;5029388;28;20638;-78
2024/02/29 10:07:43;;;;;;;3.25;2.20;;;14.90;99.90;;;;;;5030044;28;20215;-78
2024/02/29 10:10:13;;;;;;;5.45;2.63;;;14.70;99.90;;;;;;5034918;28;20218;-80
2024/02/29 10:12:40;;;;;;;2.53;2.30;;;14.30;99.90;;;;;;5028319;28;20246;-76
2024/02/29 10:15:10;;;;;;;3.38;2.47;;;14.10;99.90;;;;;;5032780;28;20326;-74
2024/02/29 10:17:37;;;;;;;3.53;2.50;;;13.80;99.90;;;;;;5038333;28;20215;-75
2024/02/29 10:20:08;;;;;;;5.15;2.63;;;13.80;99.90;;;;;;5029806;28;20222;-77
2024/02/29 10:22:37;;;;;;;4.07;2.47;;;13.80;99.90;;;;;;5029139;28;20221;-75
2024/02/29 10:25:11;;;;;;;3.67;2.40;;;13.70;99.90;;;;;;5031084;28;20593;-77
2024/02/29 10:27:39;;;;;;;3.33;2.08;;;13.60;99.90;;;;;;5031309;28;20220;-82
2024/02/29 10:30:09;;;;;;;4.55;2.53;;;13.60;99.90;;;;;;5029397;28;20306;-74
2024/02/29 10:32:36;;;;;;;5.07;2.33;;;13.60;99.90;;;;;;5031719;28;20233;-76
2024/02/29 10:35:17;;;;;;;2.10;1.90;;;13.60;99.90;;;;;;5028818;28;20269;-77
2024/02/29 10:37:44;;;;;;;3.45;2.03;;;13.60;99.90;;;;;;5031183;28;20254;-78
2024/02/29 10:40:13;;;;;;;2.67;2.20;;;13.60;99.90;;;;;;5031166;28;20276;-77
2024/02/29 10:42:41;;;;;;;2.85;1.90;;;13.50;99.90;;;;;;5024172;28;20308;-80
2024/02/29 10:45:13;;;;;;;2.22;2.00;;;13.40;99.90;;;;;;5031936;28;20246;-75
2024/02/29 10:47:46;;;;;;;2.30;2.10;;;13.40;99.90;;;;;;5030891;28;20218;-78
2024/02/29 10:50:19;;;;;;;2.67;1.90;;;13.40;99.90;;;;;;5031497;28;20653;-83
2024/02/29 10:52:50;;;;;;;2.45;2.05;;;13.30;99.90;;;;;;5030146;28;20315;-77
2024/02/29 10:55:25;;;;;;;3.03;1.83;;;13.30;99.90;;;;;;5031167;28;20276;-78
2024/02/29 10:58:05;;;;;;;2.53;2.33;;;13.30;99.90;;;;;;5029447;28;20739;-78
2024/02/29 11:00:32;;;;;;;3.58;1.92;;;13.20;99.90;;;;;;5026831;28;20246;-75
2024/02/29 11:03:00;;;;;;;2.35;1.95;;;13.20;99.90;;;;;;5028731;28;20285;-77
2024/02/29 11:05:27;;;;;;;3.78;2.25;;;13.30;99.90;;;;;;5029488;28;20277;-77
2024/02/29 11:07:55;;;;;;;2.35;2.00;;;13.40;99.90;;;;;;5032745;28;20317;-77
2024/02/29 11:10:24;;;;;;;3.42;2.20;;;13.50;99.90;;;;;;5032546;28;20306;-77
2024/02/29 11:12:57;;;;;;;3.40;2.40;;;13.50;99.90;;;;;;5031617;28;20300;-80
2024/02/29 11:15:26;;;;;;;5.68;2.17;;;13.60;99.90;;;;;;5034115;28;20239;-77
2024/02/29 11:17:53;;;;;;;2.65;2.00;;;13.70;99.90;;;;;;5031334;28;20366;-76
2024/02/29 11:20:21;;;;;;;2.97;2.33;;;13.80;99.90;;;;;;5032935;28;20316;-78
2024/02/29 11:22:48;;;;;;;2.28;1.80;;;13.90;99.90;;;;;;5025641;28;20239;-80
2024/02/29 11:25:20;;;;;;;5.70;2.33;;;14.00;99.90;;;;;;5029270;28;20229;-78
2024/02/29 11:27:50;;;;;;;3.03;2.10;;;14.20;99.90;;;;;;5031284;28;20316;-78
2024/02/29 11:30:21;;;;;;;3.58;2.15;;;14.30;99.90;;;;;;5034433;28;20309;-78
2024/02/29 11:32:50;;;;;;;2.67;1.88;;;14.40;99.90;;;;;;5030527;28;20229;-77
2024/02/29 11:35:17;;;;;;;2.30;2.10;;;14.50;99.90;;;;;;5034728;28;20230;-79
2024/02/29 11:37:45;;;;;;;1.63;1.52;;;14.60;99.90;;;;;;5029925;28;20304;-77
2024/02/29 11:40:15;;;;;;;2.00;1.90;;;14.60;99.90;;;;;;5033044;28;20266;-79
2024/02/29 11:42:42;;;;;;;2.67;2.10;;;14.50;99.90;;;;;;5031024;28;20241;-77
2024/02/29 11:45:20;;;;;;;1.98;1.80;;;14.40;99.90;;;;;;5028699;28;20223;-80
2024/02/29 11:47:47;;;;;;;2.63;1.88;;;14.40;99.90;;;;;;5029545;28;20214;-78
2024/02/29 11:50:14;;;;;;;2.35;2.05;;;14.50;99.90;;;;;;5034275;28;20226;-80
2024/02/29 11:52:40;;;;;;;3.90;2.22;;;14.50;99.90;;;;;;5030003;28;20222;-76
2024/02/29 11:55:09;;;;;;;1.77;1.60;;;14.60;99.90;;;;;;5031415;28;21352;-84
2024/02/29 11:57:36;;;;;;;4.10;2.17;;;14.60;99.90;;;;;;5032258;28;20277;-77
2024/02/29 12:00:04;;;;;;;3.83;1.90;;;14.80;99.90;;;;;;5031370;28;20246;-79
2024/02/29 12:02:33;;;;;;;3.63;1.98;;;15.00;99.90;;;;;;5035423;28;20297;-82
2024/02/29 12:05:00;;;;;;;3.45;1.83;;;15.10;99.90;;;;;;5034194;28;20268;-79
2024/02/29 12:07:28;;;;;;;3.20;2.10;;;15.10;99.90;;;;;;5033307;28;20250;-78
2024/02/29 12:09:55;;;;;;;3.45;2.05;;;15.20;99.90;;;;;;5031725;28;20226;-78
2024/02/29 12:12:22;;;;;;;2.22;2.03;;;15.20;99.90;;;;;;5033461;28;20844;-76
2024/02/29 12:14:49;;;;;;;2.97;2.10;;;15.30;99.90;;;;;;5032430;28;20310;-82
2024/02/29 12:17:18;;;;;;;3.05;1.80;;;15.30;99.90;;;;;;5031005;28;20215;-78
2024/02/29 12:19:47;;;;;;;2.95;1.90;;;15.40;99.90;;;;;;5033298;28;20226;-82
2024/02/29 12:22:14;;;;;;;2.88;1.98;;;15.50;99.90;;;;;;5030807;28;21061;-77
2024/02/29 12:24:43;;;;;;;3.38;1.92;;;15.50;99.90;;;;;;5032612;28;20806;-76
2024/02/29 12:27:10;;;;;;;3.63;1.88;;;15.50;99.90;;;;;;5036118;28;20232;-77
2024/02/29 12:29:37;;;;;;;3.20;2.13;;;15.50;99.90;;;;;;5030753;28;20223;-78
2024/02/29 12:32:04;;;;;;;2.03;1.83;;;15.30;99.90;;;;;;5034486;28;20305;-83
2024/02/29 12:34:31;;;;;;;2.13;1.90;;;15.10;99.90;;;;;;5029916;28;20708;-83
2024/02/29 12:37:03;;;;;;;3.22;1.98;;;14.90;99.90;;;;;;5033289;28;20294;-80
2024/02/29 12:39:30;;;;;;;2.97;2.20;;;14.80;99.90;;;;;;5034547;28;20282;-81
2024/02/29 12:41:57;;;;;;;6.63;2.20;;;14.80;99.90;;;;;;5026360;28;20732;-83
2024/02/29 12:44:24;;;;;;;3.10;2.20;;;14.70;99.90;;;;;;5034588;28;21132;-80
2024/02/29 12:46:55;;;;;;;2.28;2.08;;;14.70;99.90;;;;;;5033258;28;20743;-79
2024/02/29 12:49:22;;;;;;;3.28;2.05;;;14.70;99.90;;;;;;5033010;28;20215;-78
2024/02/29 12:51:49;;;;;;;4.47;2.28;;;14.80;99.90;;;;;;5032359;28;20246;-80
2024/02/29 12:54:18;;;;;;;2.30;1.95;;;14.80;99.90;;;;;;5033595;28;20326;-76
2024/02/29 12:56:44;;;;;;;2.35;2.08;;;14.70;99.90;;;;;;5031471;28;21045;-80